createdAt,value
2023-04-16T00:01:14.655Z,6.01
2023-04-16T00:03:41.284Z,6.01
2023-04-16T00:06:07.853Z,5.96
2023-04-16T00:08:35.731Z,5.98
2023-04-16T00:11:02.045Z,5.97
2023-04-16T00:13:28.380Z,5.94
2023-04-16T00:15:54.742Z,5.91
2023-04-16T00:18:21.402Z,6.02
2023-04-16T00:20:48.468Z,5.98
2023-04-16T00:23:14.754Z,6.04
2023-04-16T00:25:41.120Z,6.00
2023-04-16T00:28:08.327Z,5.98
2023-04-16T00:30:35.409Z,6.07
2023-04-16T00:33:02.806Z,6.13
2023-04-16T00:35:29.111Z,6.10
2023-04-16T00:37:55.617Z,6.09
2023-04-16T00:40:21.984Z,6.14
2023-04-16T00:42:48.296Z,6.15
2023-04-16T00:45:14.619Z,6.17
2023-04-16T00:47:40.966Z,6.18
2023-04-16T00:50:07.820Z,6.24
2023-04-16T00:52:34.590Z,6.26
2023-04-16T00:55:01.108Z,6.27
2023-04-16T00:57:27.848Z,6.31
2023-04-16T00:59:54.632Z,6.37
2023-04-16T01:02:21.149Z,6.39
2023-04-16T01:04:47.569Z,6.43
2023-04-16T01:07:13.889Z,6.46
2023-04-16T01:09:40.202Z,6.45
2023-04-16T01:12:06.484Z,6.48
2023-04-16T01:14:36.153Z,6.55
2023-04-16T01:17:03.815Z,6.56
2023-04-16T01:19:36.151Z,6.67
2023-04-16T01:22:03.982Z,6.67
2023-04-16T01:24:31.043Z,6.70
2023-04-16T01:26:59.019Z,6.62
2023-04-16T01:29:25.809Z,6.72
2023-04-16T01:31:52.446Z,6.66
2023-04-16T01:34:18.794Z,6.68
2023-04-16T01:36:45.264Z,6.69
2023-04-16T01:39:15.371Z,6.73
2023-04-16T01:41:42.092Z,6.67
2023-04-16T01:44:08.374Z,6.63
2023-04-16T01:46:38.190Z,6.68
2023-04-16T01:49:05.192Z,6.57
2023-04-16T01:51:32.168Z,6.76
2023-04-16T01:53:59.032Z,6.60
2023-04-16T01:56:25.637Z,6.52
2023-04-16T01:58:52.635Z,6.56
2023-04-16T02:01:19.159Z,6.52
2023-04-16T02:03:46.088Z,6.49
2023-04-16T02:06:12.558Z,6.56
2023-04-16T02:08:38.837Z,6.55
2023-04-16T02:11:05.239Z,6.64
2023-04-16T02:13:31.629Z,6.61
2023-04-16T02:15:58.293Z,6.66
2023-04-16T02:18:24.648Z,6.64
2023-04-16T02:20:50.973Z,6.61
2023-04-16T02:23:17.398Z,6.61
2023-04-16T02:25:45.917Z,6.59
2023-04-16T02:28:14.505Z,6.62
2023-04-16T02:30:41.687Z,6.57
2023-04-16T02:33:10.348Z,6.59
2023-04-16T02:35:38.327Z,6.56
2023-04-16T02:38:05.699Z,6.50
2023-04-16T02:40:32.196Z,6.50
2023-04-16T02:42:58.642Z,6.73
2023-04-16T02:45:25.276Z,6.75
2023-04-16T02:47:51.727Z,6.87
2023-04-16T02:50:18.163Z,6.89
2023-04-16T02:52:44.586Z,6.87
2023-04-16T02:55:11.416Z,6.94
2023-04-16T02:57:37.763Z,6.96
2023-04-16T03:00:05.025Z,6.84
2023-04-16T03:02:31.685Z,6.97
2023-04-16T03:04:58.078Z,6.97
2023-04-16T03:07:24.503Z,7.08
2023-04-16T03:09:50.841Z,7.08
2023-04-16T03:12:17.174Z,7.17
2023-04-16T03:14:43.479Z,6.96
2023-04-16T03:17:09.809Z,7.05
2023-04-16T03:19:36.131Z,7.17
2023-04-16T03:22:02.570Z,7.16
2023-04-16T03:24:29.410Z,7.22
2023-04-16T03:26:57.890Z,7.15
2023-04-16T03:29:24.645Z,7.15
2023-04-16T03:31:50.995Z,7.15
2023-04-16T03:34:17.337Z,6.97
2023-04-16T03:36:43.663Z,7.03
2023-04-16T03:39:10.133Z,6.99
2023-04-16T03:41:36.696Z,6.96
2023-04-16T03:44:03.186Z,6.77
2023-04-16T03:46:29.516Z,6.73
2023-04-16T03:48:55.878Z,6.75
2023-04-16T03:51:22.192Z,6.81
2023-04-16T03:53:48.490Z,6.79
2023-04-16T03:56:14.811Z,6.77
2023-04-16T03:58:41.069Z,6.77
2023-04-16T04:01:07.403Z,6.74
2023-04-16T04:03:33.782Z,6.82
2023-04-16T04:06:00.415Z,6.88
2023-04-16T04:08:26.803Z,6.89
2023-04-16T04:10:53.103Z,6.90
2023-04-16T04:13:19.472Z,6.95
2023-04-16T04:15:45.746Z,6.90
2023-04-16T04:18:12.026Z,6.85
2023-04-16T04:20:41.244Z,6.89
2023-04-16T04:23:07.622Z,6.89
2023-04-16T04:25:33.985Z,6.87
2023-04-16T04:28:00.558Z,6.90
2023-04-16T04:30:26.883Z,6.93
2023-04-16T04:32:53.239Z,6.95
2023-04-16T04:35:19.749Z,7.01
2023-04-16T04:37:46.366Z,6.92
2023-04-16T04:40:12.654Z,6.93
2023-04-16T04:42:39.101Z,7.02
2023-04-16T04:45:05.889Z,7.04
2023-04-16T04:47:32.210Z,7.17
2023-04-16T04:49:58.590Z,7.07
2023-04-16T04:52:24.913Z,7.10
2023-04-16T04:54:52.636Z,7.18
2023-04-16T04:57:18.945Z,7.10
2023-04-16T04:59:45.577Z,7.20
2023-04-16T05:02:12.105Z,7.18
2023-04-16T05:04:38.506Z,7.20
2023-04-16T05:07:04.881Z,7.24
2023-04-16T05:09:31.215Z,7.26
2023-04-16T05:11:57.531Z,7.12
2023-04-16T05:14:24.911Z,7.14
2023-04-16T05:16:51.343Z,7.37
2023-04-16T05:19:17.733Z,7.37
2023-04-16T05:21:44.137Z,7.39
2023-04-16T05:24:10.822Z,7.45
2023-04-16T05:26:37.912Z,7.29
2023-04-16T05:29:04.560Z,7.25
2023-04-16T05:31:30.880Z,7.30
2023-04-16T05:33:57.313Z,7.34
2023-04-16T05:36:23.580Z,7.33
2023-04-16T05:38:49.927Z,7.28
2023-04-16T05:41:16.201Z,7.44
2023-04-16T05:43:42.511Z,7.36
2023-04-16T05:46:08.878Z,7.33
2023-04-16T05:48:35.257Z,7.33
2023-04-16T05:51:02.627Z,7.34
2023-04-16T05:53:29.074Z,7.28
2023-04-16T05:55:55.566Z,7.25
2023-04-16T05:58:21.874Z,7.28
2023-04-16T06:00:48.275Z,7.29
2023-04-16T06:03:14.728Z,7.31
2023-04-16T06:05:41.412Z,7.28
2023-04-16T06:08:07.813Z,7.28
2023-04-16T06:10:34.139Z,7.34
2023-04-16T06:13:00.587Z,7.33
2023-04-16T06:15:26.897Z,7.39
2023-04-16T06:17:54.697Z,7.40
2023-04-16T06:20:21.361Z,7.43
2023-04-16T06:22:47.751Z,7.57
2023-04-16T06:25:15.719Z,7.52
2023-04-16T06:27:43.896Z,7.56
2023-04-16T06:30:15.739Z,7.76
2023-04-16T06:32:43.101Z,7.79
2023-04-16T06:35:09.745Z,7.82
2023-04-16T06:37:36.161Z,7.75
2023-04-16T06:40:02.547Z,7.73
2023-04-16T06:42:29.604Z,7.67
2023-04-16T06:44:55.969Z,7.62
2023-04-16T06:47:22.268Z,7.66
2023-04-16T06:49:48.589Z,7.69
2023-04-16T06:52:14.937Z,7.82
2023-04-16T06:54:41.262Z,7.93
2023-04-16T06:57:07.543Z,7.87
2023-04-16T06:59:33.916Z,7.87
2023-04-16T07:02:00.348Z,7.80
2023-04-16T07:04:26.812Z,7.82
2023-04-16T07:06:53.089Z,7.94
2023-04-16T07:09:19.426Z,8.00
2023-04-16T07:11:46.279Z,8.05
2023-04-16T07:14:12.617Z,7.92
2023-04-16T07:16:38.987Z,7.95
2023-04-16T07:19:05.452Z,7.96
2023-04-16T07:21:32.002Z,8.07
2023-04-16T07:23:58.296Z,8.17
2023-04-16T07:26:24.568Z,8.03
2023-04-16T07:28:51.145Z,8.07
2023-04-16T07:31:17.572Z,8.07
2023-04-16T07:33:43.985Z,8.00
2023-04-16T07:36:10.900Z,7.95
2023-04-16T07:38:37.240Z,8.05
2023-04-16T07:41:03.574Z,8.08
2023-04-16T07:43:29.853Z,7.90
2023-04-16T07:45:56.360Z,7.89
2023-04-16T07:48:22.683Z,7.90
2023-04-16T07:50:50.011Z,7.97
2023-04-16T07:53:16.305Z,8.11
2023-04-16T07:55:42.567Z,8.15
2023-04-16T07:58:09.505Z,8.30
2023-04-16T08:00:35.870Z,8.30
2023-04-16T08:03:02.465Z,8.17
2023-04-16T08:05:29.112Z,8.28
2023-04-16T08:07:55.581Z,8.31
2023-04-16T08:10:22.329Z,8.50
2023-04-16T08:12:48.963Z,8.66
2023-04-16T08:15:15.289Z,8.61
2023-04-16T08:17:41.669Z,8.64
2023-04-16T08:20:08.408Z,8.65
2023-04-16T08:22:34.748Z,8.52
2023-04-16T08:25:01.591Z,8.18
2023-04-16T08:27:27.883Z,8.27
2023-04-16T08:29:54.341Z,8.31
2023-04-16T08:32:20.853Z,8.48
2023-04-16T08:34:47.362Z,8.59
2023-04-16T08:37:13.729Z,8.38
2023-04-16T08:39:40.476Z,8.40
2023-04-16T08:42:14.017Z,8.30
2023-04-16T08:44:49.086Z,8.32
2023-04-16T08:47:16.315Z,8.32
2023-04-16T08:49:46.105Z,8.54
2023-04-16T08:52:18.309Z,8.55
2023-04-16T08:55:08.711Z,8.78
2023-04-16T08:57:44.328Z,8.96
2023-04-16T09:00:11.909Z,8.95
2023-04-16T09:02:38.874Z,9.13
2023-04-16T09:05:07.258Z,9.16
2023-04-16T09:07:34.079Z,9.12
2023-04-16T09:10:01.470Z,8.89
2023-04-16T09:12:27.775Z,8.80
2023-04-16T09:14:56.850Z,8.65
2023-04-16T09:17:23.182Z,8.89
2023-04-16T09:19:49.619Z,8.98
2023-04-16T09:22:17.130Z,9.07
2023-04-16T09:24:43.483Z,9.07
2023-04-16T09:27:09.825Z,9.34
2023-04-16T09:29:38.367Z,9.32
2023-04-16T09:32:09.788Z,9.27
2023-04-16T09:35:00.680Z,9.29
2023-04-16T09:37:31.855Z,9.44
2023-04-16T09:40:04.100Z,9.42
2023-04-16T09:42:33.941Z,9.50
2023-04-16T09:45:02.011Z,9.47
2023-04-16T09:47:47.939Z,9.43
2023-04-16T09:50:19.215Z,9.59
2023-04-16T09:52:49.535Z,9.47
2023-04-16T09:55:15.895Z,9.54
2023-04-16T09:57:42.159Z,9.76
2023-04-16T10:00:10.087Z,9.69
2023-04-16T10:02:41.605Z,9.33
2023-04-16T10:05:08.693Z,9.30
2023-04-16T10:07:36.782Z,9.13
2023-04-16T10:10:04.450Z,9.11
2023-04-16T10:12:32.650Z,9.17
2023-04-16T10:14:58.960Z,8.99
2023-04-16T10:17:27.161Z,8.99
2023-04-16T10:19:54.535Z,9.02
2023-04-16T10:22:20.916Z,8.93
2023-04-16T10:24:48.633Z,8.80
2023-04-16T10:27:14.886Z,8.90
2023-04-16T10:29:41.389Z,8.94
2023-04-16T10:32:08.178Z,8.95
2023-04-16T10:34:35.467Z,8.89
2023-04-16T10:37:01.809Z,8.91
2023-04-16T10:39:29.344Z,8.78
2023-04-16T10:42:12.507Z,8.89
2023-04-16T10:44:42.560Z,8.86
2023-04-16T10:47:15.097Z,8.82
2023-04-16T10:49:42.256Z,8.54
2023-04-16T10:52:13.440Z,8.35
2023-04-16T10:54:40.970Z,8.33
2023-04-16T10:57:10.644Z,8.44
2023-04-16T10:59:39.473Z,8.27
2023-04-16T11:02:15.157Z,8.39
2023-04-16T11:04:46.444Z,8.54
2023-04-16T11:07:16.358Z,8.70
2023-04-16T11:09:49.541Z,8.52
2023-04-16T11:12:20.865Z,8.70
2023-04-16T11:14:50.399Z,8.81
2023-04-16T11:17:17.521Z,8.82
2023-04-16T11:19:44.418Z,8.87
2023-04-16T11:22:17.054Z,8.78
2023-04-16T11:24:45.161Z,8.35
2023-04-16T11:27:13.061Z,8.48
2023-04-16T11:29:39.826Z,8.43
2023-04-16T11:32:06.372Z,8.39
2023-04-16T11:34:33.083Z,8.49
2023-04-16T11:36:59.773Z,8.72
2023-04-16T11:39:26.166Z,8.82
2023-04-16T11:41:52.679Z,8.95
2023-04-16T11:44:24.652Z,8.99
2023-04-16T11:46:52.615Z,9.07
2023-04-16T11:49:27.798Z,8.93
2023-04-16T11:51:55.159Z,9.10
2023-04-16T11:54:23.014Z,9.04
2023-04-16T11:56:50.673Z,9.15
2023-04-16T11:59:20.030Z,9.12
2023-04-16T12:01:51.102Z,9.04
2023-04-16T12:04:20.815Z,8.89
2023-04-16T12:07:10.825Z,9.18
2023-04-16T12:09:41.460Z,9.14
2023-04-16T12:12:30.466Z,9.24
2023-04-16T12:14:59.427Z,9.19
2023-04-16T12:17:25.907Z,9.17
2023-04-16T12:19:56.215Z,9.18
2023-04-16T12:22:32.656Z,9.31
2023-04-16T12:25:01.413Z,9.35
2023-04-16T12:28:02.065Z,9.13
2023-04-16T12:30:30.790Z,9.21
2023-04-16T12:33:17.694Z,9.15
2023-04-16T12:35:44.867Z,9.05
2023-04-16T12:38:11.877Z,9.05
2023-04-16T12:40:38.760Z,9.03
2023-04-16T12:43:05.294Z,8.91
2023-04-16T12:45:31.707Z,8.95
2023-04-16T12:47:58.072Z,8.74
2023-04-16T12:50:24.813Z,8.69
2023-04-16T12:52:51.510Z,8.79
2023-04-16T12:55:18.637Z,8.84
2023-04-16T12:57:45.232Z,9.00
2023-04-16T13:00:12.518Z,8.78
2023-04-16T13:02:38.965Z,8.84
2023-04-16T13:05:05.822Z,8.82
2023-04-16T13:07:33.868Z,8.72
2023-04-16T13:10:00.737Z,8.89
2023-04-16T13:12:27.518Z,8.77
2023-04-16T13:14:55.360Z,8.69
2023-04-16T13:17:21.778Z,8.91
2023-04-16T13:19:48.139Z,9.13
2023-04-16T13:22:14.521Z,9.47
2023-04-16T13:24:41.043Z,9.31
2023-04-16T13:27:08.347Z,9.29
2023-04-16T13:29:36.560Z,9.23
2023-04-16T13:32:03.756Z,9.30
2023-04-16T13:34:30.286Z,9.23
2023-04-16T13:36:56.595Z,9.26
2023-04-16T13:39:22.898Z,9.33
2023-04-16T13:41:50.274Z,9.23
2023-04-16T13:44:16.583Z,9.33
2023-04-16T13:46:47.811Z,9.42
2023-04-16T13:49:14.753Z,9.45
2023-04-16T13:51:44.622Z,9.61
2023-04-16T13:54:10.950Z,9.72
2023-04-16T13:56:37.315Z,9.65
2023-04-16T13:59:03.669Z,9.46
2023-04-16T14:01:30.030Z,9.63
2023-04-16T14:03:56.475Z,9.75
2023-04-16T14:06:22.930Z,9.76
2023-04-16T14:08:49.246Z,9.76
2023-04-16T14:11:15.690Z,9.90
2023-04-16T14:13:42.076Z,9.96
2023-04-16T14:16:08.563Z,9.96
2023-04-16T14:18:35.792Z,10.01
2023-04-16T14:21:02.183Z,9.94
2023-04-16T14:23:28.668Z,10.01
2023-04-16T14:25:55.238Z,10.06
2023-04-16T14:28:21.548Z,10.08
2023-04-16T14:30:47.859Z,10.15
2023-04-16T14:33:14.156Z,10.13
2023-04-16T14:35:42.776Z,10.12
2023-04-16T14:38:09.273Z,10.22
2023-04-16T14:40:36.470Z,10.34
2023-04-16T14:43:02.996Z,10.27
2023-04-16T14:45:30.747Z,10.19
2023-04-16T14:47:57.188Z,10.26
2023-04-16T14:50:23.606Z,10.23
2023-04-16T14:52:50.666Z,10.15
2023-04-16T14:55:17.056Z,10.15
2023-04-16T14:57:43.459Z,10.05
2023-04-16T15:00:10.939Z,9.95
2023-04-16T15:02:37.916Z,10.09
2023-04-16T15:05:04.708Z,10.17
2023-04-16T15:07:31.434Z,10.18
2023-04-16T15:09:59.119Z,10.24
2023-04-16T15:12:26.346Z,10.18
2023-04-16T15:14:52.779Z,10.00
2023-04-16T15:17:20.705Z,10.07
2023-04-16T15:19:47.573Z,10.23
2023-04-16T15:22:14.681Z,10.30
2023-04-16T15:24:41.072Z,10.25
2023-04-16T15:27:08.985Z,9.82
2023-04-16T15:29:36.764Z,9.95
2023-04-16T15:32:03.194Z,9.94
2023-04-16T15:34:30.239Z,10.07
2023-04-16T15:36:56.521Z,9.92
2023-04-16T15:39:22.814Z,9.99
2023-04-16T15:42:00.804Z,10.08
2023-04-16T15:44:28.025Z,10.23
2023-04-16T15:46:54.359Z,10.08
2023-04-16T15:49:20.772Z,10.02
2023-04-16T15:51:47.151Z,10.01
2023-04-16T15:54:13.475Z,10.00
2023-04-16T15:56:40.091Z,10.04
2023-04-16T15:59:06.463Z,10.15
2023-04-16T16:01:32.755Z,10.02
2023-04-16T16:03:59.265Z,10.14
2023-04-16T16:06:27.003Z,10.00
2023-04-16T16:08:54.398Z,10.05
2023-04-16T16:11:21.717Z,9.89
2023-04-16T16:13:48.156Z,9.81
2023-04-16T16:16:14.825Z,9.50
2023-04-16T16:18:42.010Z,9.57
2023-04-16T16:21:08.601Z,9.53
2023-04-16T16:23:35.440Z,9.47
2023-04-16T16:26:02.081Z,9.43
2023-04-16T16:28:28.391Z,9.45
2023-04-16T16:30:55.532Z,9.35
2023-04-16T16:33:22.281Z,9.42
2023-04-16T16:35:48.545Z,9.44
2023-04-16T16:38:15.199Z,9.49
2023-04-16T16:40:41.523Z,9.34
2023-04-16T16:43:07.960Z,9.39
2023-04-16T16:45:34.346Z,9.29
2023-04-16T16:48:00.873Z,9.38
2023-04-16T16:50:27.269Z,9.43
2023-04-16T16:52:53.559Z,9.57
2023-04-16T16:55:20.809Z,9.53
2023-04-16T16:57:47.159Z,9.47
2023-04-16T17:00:15.095Z,9.33
2023-04-16T17:02:41.632Z,9.34
2023-04-16T17:05:08.594Z,9.36
2023-04-16T17:07:34.889Z,9.29
2023-04-16T17:10:03.160Z,9.39
2023-04-16T17:12:31.003Z,9.44
2023-04-16T17:14:57.319Z,9.40
2023-04-16T17:17:23.775Z,9.44
2023-04-16T17:19:50.101Z,9.33
2023-04-16T17:22:16.603Z,9.30
2023-04-16T17:24:43.285Z,9.30
2023-04-16T17:27:09.604Z,9.42
2023-04-16T17:29:36.024Z,9.15
2023-04-16T17:32:02.412Z,9.24
2023-04-16T17:34:28.885Z,9.26
2023-04-16T17:36:55.174Z,9.28
2023-04-16T17:39:21.466Z,9.37
2023-04-16T17:41:49.571Z,9.34
2023-04-16T17:44:16.362Z,9.29
2023-04-16T17:46:42.861Z,9.29
2023-04-16T17:49:09.270Z,9.26
2023-04-16T17:51:35.566Z,9.20
2023-04-16T17:54:03.300Z,9.15
2023-04-16T17:56:29.616Z,9.03
2023-04-16T17:58:56.019Z,9.03
2023-04-16T18:01:22.306Z,8.97
2023-04-16T18:03:48.789Z,8.89
2023-04-16T18:06:15.408Z,8.89
2023-04-16T18:08:41.685Z,8.82
2023-04-16T18:11:08.518Z,8.80
2023-04-16T18:13:35.468Z,8.83
2023-04-16T18:16:02.476Z,8.84
2023-04-16T18:18:28.850Z,8.79
2023-04-16T18:20:55.263Z,8.78
2023-04-16T18:23:22.041Z,8.77
2023-04-16T18:25:48.985Z,8.74
2023-04-16T18:28:15.430Z,8.85
2023-04-16T18:30:46.409Z,8.72
2023-04-16T18:33:38.981Z,8.58
2023-04-16T18:36:02.238Z,8.62
2023-04-16T18:38:30.503Z,8.45
2023-04-16T18:40:57.024Z,8.48
2023-04-16T18:43:23.903Z,8.47
2023-04-16T18:45:50.236Z,8.56
2023-04-16T18:48:16.747Z,8.57
2023-04-16T18:50:43.067Z,8.55
2023-04-16T18:53:09.412Z,8.60
2023-04-16T18:55:35.677Z,8.53
2023-04-16T18:58:02.153Z,8.50
2023-04-16T19:00:28.633Z,8.51
2023-04-16T19:02:55.046Z,8.44
2023-04-16T19:05:21.505Z,8.41
2023-04-16T19:07:47.771Z,8.40
2023-04-16T19:10:14.263Z,8.40
2023-04-16T19:12:40.776Z,8.40
2023-04-16T19:15:07.628Z,8.37
2023-04-16T19:17:34.161Z,8.35
2023-04-16T19:20:00.665Z,8.32
2023-04-16T19:22:32.966Z,8.27
2023-04-16T19:24:59.258Z,8.23
2023-04-16T19:27:29.050Z,8.32
2023-04-16T19:29:55.452Z,8.30
2023-04-16T19:32:21.847Z,8.21
2023-04-16T19:34:48.385Z,8.17
2023-04-16T19:37:14.905Z,8.20
2023-04-16T19:39:41.213Z,8.20
2023-04-16T19:42:07.894Z,7.99
2023-04-16T19:44:37.303Z,8.03
2023-04-16T19:47:04.066Z,8.03
2023-04-16T19:51:56.882Z,8.06
2023-04-16T19:54:23.608Z,8.12
2023-04-16T19:56:51.668Z,8.01
2023-04-16T19:59:18.152Z,7.93
2023-04-16T20:01:44.993Z,7.93
2023-04-16T20:04:11.819Z,7.83
2023-04-16T20:06:38.217Z,7.82
2023-04-16T20:09:04.808Z,7.89
2023-04-16T20:11:31.247Z,7.76
2023-04-16T20:14:00.223Z,7.68
2023-04-16T20:16:26.683Z,7.63
2023-04-16T20:18:54.205Z,7.62
2023-04-16T20:21:21.464Z,7.64
2023-04-16T20:23:50.527Z,7.48
2023-04-16T20:26:20.266Z,7.62
2023-04-16T20:28:46.635Z,7.82
2023-04-16T20:31:13.179Z,7.70
2023-04-16T20:33:40.254Z,7.69
2023-04-16T20:36:07.188Z,7.75
2023-04-16T20:38:35.342Z,7.78
2023-04-16T20:41:10.932Z,7.79
2023-04-16T20:43:43.948Z,7.74
2023-04-16T20:46:11.751Z,7.80
2023-04-16T20:48:38.921Z,7.82
2023-04-16T20:51:07.522Z,7.87
2023-04-16T20:53:34.015Z,7.76
2023-04-16T20:56:00.840Z,7.71
2023-04-16T20:58:27.378Z,7.67
2023-04-16T21:00:54.890Z,7.62
2023-04-16T21:03:22.028Z,7.56
2023-04-16T21:05:53.035Z,7.60
2023-04-16T21:08:20.618Z,7.44
2023-04-16T21:10:47.169Z,7.47
2023-04-16T21:13:13.626Z,7.46
2023-04-16T21:15:41.712Z,7.41
2023-04-16T21:18:08.559Z,7.34
2023-04-16T21:20:35.443Z,7.24
2023-04-16T21:23:02.582Z,7.35
2023-04-16T21:25:29.448Z,7.44
2023-04-16T21:27:55.928Z,7.47
2023-04-16T21:30:22.525Z,7.49
2023-04-16T21:32:48.876Z,7.54
2023-04-16T21:35:15.282Z,7.40
2023-04-16T21:37:41.626Z,7.46
2023-04-16T21:40:08.636Z,7.33
2023-04-16T21:42:39.825Z,7.44
2023-04-16T21:45:10.659Z,7.46
2023-04-16T21:47:37.711Z,7.37
2023-04-16T21:50:04.634Z,7.38
2023-04-16T21:52:32.574Z,7.45
2023-04-16T21:54:59.844Z,7.36
2023-04-16T21:57:26.121Z,7.41
2023-04-16T21:59:52.451Z,7.36
2023-04-16T22:02:18.929Z,7.31
2023-04-16T22:04:45.300Z,7.37
2023-04-16T22:07:11.855Z,7.35
2023-04-16T22:09:38.785Z,7.33
2023-04-16T22:12:11.867Z,7.44
2023-04-16T22:14:44.085Z,7.46
2023-04-16T22:17:16.970Z,7.40
2023-04-16T22:19:44.451Z,7.44
2023-04-16T22:22:11.062Z,7.39
2023-04-16T22:24:37.366Z,7.31
2023-04-16T22:27:03.817Z,7.37
2023-04-16T22:29:30.171Z,7.25
2023-04-16T22:31:56.752Z,7.31
2023-04-16T22:34:23.141Z,7.33
2023-04-16T22:36:49.589Z,7.34
2023-04-16T22:39:15.983Z,7.35
2023-04-16T22:41:42.335Z,7.38
2023-04-16T22:44:08.648Z,7.34
2023-04-16T22:46:35.139Z,7.21
2023-04-16T22:49:01.518Z,7.33
2023-04-16T22:51:27.826Z,7.33
2023-04-16T22:53:54.591Z,7.28
2023-04-16T22:56:21.275Z,7.21
2023-04-16T22:58:50.637Z,7.18
2023-04-16T23:01:17.402Z,7.21
2023-04-16T23:03:43.831Z,7.18
2023-04-16T23:06:10.232Z,7.20
2023-04-16T23:08:36.508Z,7.16
2023-04-16T23:11:02.823Z,7.20
2023-04-16T23:13:29.128Z,7.29
2023-04-16T23:15:55.565Z,7.21
2023-04-16T23:18:21.999Z,7.26
2023-04-16T23:20:51.670Z,7.28
2023-04-16T23:23:18.227Z,7.23
2023-04-16T23:25:44.515Z,7.28
2023-04-16T23:28:10.816Z,7.31
2023-04-16T23:30:37.273Z,7.31
2023-04-16T23:33:04.400Z,7.34
2023-04-16T23:35:30.845Z,7.35
2023-04-16T23:37:57.127Z,7.33
2023-04-16T23:40:23.423Z,7.31
2023-04-16T23:42:49.706Z,7.28
2023-04-16T23:45:16.052Z,7.22
2023-04-16T23:47:42.558Z,7.18
2023-04-16T23:50:08.988Z,7.17
2023-04-16T23:52:35.612Z,7.15
2023-04-16T23:55:01.936Z,7.06
2023-04-16T23:57:28.264Z,7.06
2023-04-16T23:59:54.573Z,7.07
